createdAt,value
2022-08-22T00:00:13.825Z,93820.16
2022-08-22T00:02:43.019Z,93793.53
2022-08-22T00:03:18.627Z,93823.63
2022-08-22T00:06:01.942Z,93800.72
2022-08-22T00:08:32.635Z,93785.47
2022-08-22T00:11:25.762Z,93778.66
2022-08-22T00:14:05.021Z,93801.97
2022-08-22T00:16:56.373Z,93806.91
2022-08-22T00:19:46.448Z,93808.06
2022-08-22T00:22:26.012Z,93812.38
2022-08-22T00:25:25.802Z,93807.72
2022-08-22T00:28:15.390Z,93799.94
2022-08-22T00:30:58.477Z,93796.31
2022-08-22T00:33:39.035Z,93804.78
2022-08-22T00:36:28.956Z,93786.94
2022-08-22T00:39:10.045Z,93797.50
2022-08-22T00:42:10.771Z,93806.00
2022-08-22T00:44:39.924Z,93798.38
2022-08-22T00:47:31.352Z,93801.22
2022-08-22T00:50:26.267Z,93777.13
2022-08-22T00:53:17.652Z,93797.56
2022-08-22T00:55:57.201Z,93753.41
2022-08-22T00:59:11.996Z,93771.88
2022-08-22T01:02:11.076Z,93801.47
2022-08-22T01:04:48.073Z,93799.72
2022-08-22T01:07:43.457Z,93772.38
2022-08-22T01:10:19.070Z,93803.72
2022-08-22T01:13:07.416Z,93795.09
2022-08-22T01:15:36.467Z,93746.25
2022-08-22T01:18:05.837Z,93804.16
2022-08-22T01:20:35.348Z,93802.94
2022-08-22T01:23:22.312Z,93764.34
2022-08-22T01:25:48.612Z,93805.41
2022-08-22T01:28:24.383Z,93807.41
2022-08-22T01:31:10.552Z,93807.41
2022-08-22T01:34:11.300Z,93759.16
2022-08-22T01:36:51.796Z,93807.81
2022-08-22T01:39:33.361Z,93804.00
2022-08-22T01:42:34.685Z,93767.59
2022-08-22T01:45:04.176Z,93794.94
2022-08-22T01:47:43.021Z,93806.03
2022-08-22T01:50:19.204Z,93801.78
2022-08-22T01:53:01.897Z,93808.63
2022-08-22T01:55:56.859Z,93777.66
2022-08-22T01:58:26.948Z,93784.91
2022-08-22T02:01:21.250Z,93813.44
2022-08-22T02:03:53.649Z,93810.63
2022-08-22T02:06:40.936Z,93813.03
2022-08-22T02:09:21.712Z,93774.81
2022-08-22T02:11:54.907Z,93776.47
2022-08-22T02:14:33.542Z,93812.63
2022-08-22T02:17:22.985Z,93803.38
2022-08-22T02:20:17.989Z,93803.38
2022-08-22T02:23:13.288Z,93811.03
2022-08-22T02:25:52.650Z,93776.44
2022-08-22T02:28:56.887Z,93779.28
2022-08-22T02:31:26.871Z,93809.41
2022-08-22T02:33:59.060Z,93796.94
2022-08-22T02:36:32.497Z,93793.16
2022-08-22T02:39:16.757Z,93804.63
2022-08-22T02:42:15.072Z,93792.56
2022-08-22T02:44:52.783Z,93795.75
2022-08-22T02:47:49.693Z,93785.91
2022-08-22T02:50:26.209Z,93801.81
2022-08-22T02:52:56.856Z,93800.19
2022-08-22T02:55:32.323Z,93799.38
2022-08-22T02:58:15.809Z,93779.66
2022-08-22T03:00:51.261Z,93792.56
2022-08-22T03:03:25.860Z,93793.75
2022-08-22T03:06:04.324Z,93797.78
2022-08-22T03:09:00.433Z,93795.56
2022-08-22T03:11:32.053Z,93776.84
2022-08-22T03:14:09.569Z,93792.94
2022-08-22T03:16:47.795Z,93764.38
2022-08-22T03:19:22.319Z,93763.56
2022-08-22T03:21:58.098Z,93737.84
2022-08-22T03:24:33.294Z,93789.72
2022-08-22T03:27:02.391Z,93786.09
2022-08-22T03:29:35.924Z,93769.19
2022-08-22T03:32:11.812Z,93789.09
2022-08-22T03:34:56.024Z,93748.28
2022-08-22T03:37:37.771Z,93782.47
2022-08-22T03:40:22.561Z,93780.06
2022-08-22T03:43:20.017Z,93778.66
2022-08-22T03:46:14.565Z,93778.06
2022-08-22T03:48:56.956Z,93780.03
2022-08-22T03:51:46.808Z,93781.47
2022-08-22T03:54:34.893Z,93770.81
2022-08-22T03:57:06.401Z,93780.03
2022-08-22T03:59:57.215Z,93780.88
2022-08-22T04:02:53.369Z,93786.50
2022-08-22T04:05:44.757Z,93786.69
2022-08-22T04:08:14.076Z,93776.81
2022-08-22T04:11:21.551Z,93770.38
2022-08-22T04:14:15.930Z,93788.03
2022-08-22T04:17:04.245Z,93794.44
2022-08-22T04:19:46.543Z,93762.06
2022-08-22T04:22:34.801Z,93794.41
2022-08-22T04:25:23.328Z,93792.84
2022-08-22T04:28:15.938Z,93802.06
2022-08-22T04:30:46.548Z,93791.41
2022-08-22T04:33:28.372Z,93787.16
2022-08-22T04:36:01.471Z,93789.56
2022-08-22T04:38:37.130Z,93750.94
2022-08-22T04:41:13.656Z,93778.69
2022-08-22T04:43:53.071Z,93789.13
2022-08-22T04:46:40.558Z,93788.41
2022-08-22T04:49:25.811Z,93784.00
2022-08-22T04:52:02.904Z,93788.81
2022-08-22T04:54:29.244Z,93792.88
2022-08-22T04:57:22.605Z,93790.47
2022-08-22T04:59:49.732Z,93796.53
2022-08-22T05:02:24.493Z,93756.72
2022-08-22T05:04:59.493Z,93769.59
2022-08-22T05:07:35.907Z,93799.75
2022-08-22T05:10:11.621Z,93726.59
2022-08-22T05:12:49.473Z,93774.03
2022-08-22T05:15:26.780Z,93806.22
2022-08-22T05:17:58.651Z,93783.28
2022-08-22T05:20:28.773Z,93780.88
2022-08-22T05:23:02.861Z,93768.81
2022-08-22T05:25:36.320Z,93801.78
2022-08-22T05:28:14.845Z,93805.81
2022-08-22T05:30:45.904Z,93780.06
2022-08-22T05:33:26.637Z,93800.97
2022-08-22T05:35:59.075Z,93816.22
2022-08-22T05:38:32.235Z,93813.78
2022-08-22T05:41:09.228Z,93819.63
2022-08-22T05:43:40.637Z,93797.47
2022-08-22T05:46:16.480Z,93784.00
2022-08-22T05:48:51.617Z,93806.88
2022-08-22T05:51:25.283Z,93811.66
2022-08-22T05:54:05.983Z,93780.88
2022-08-22T05:56:41.577Z,93805.53
2022-08-22T05:59:31.136Z,93743.66
2022-08-22T06:02:09.849Z,93770.13
2022-08-22T06:04:45.501Z,93807.78
2022-08-22T06:07:20.933Z,93777.16
2022-08-22T06:09:47.292Z,93805.53
2022-08-22T06:12:22.250Z,93811.16
2022-08-22T06:15:11.976Z,93809.44
2022-08-22T06:17:47.911Z,93814.69
2022-08-22T06:20:20.170Z,93780.78
2022-08-22T06:22:53.617Z,93802.22
2022-08-22T06:25:26.243Z,93767.53
2022-08-22T06:27:54.398Z,93803.13
2022-08-22T06:30:23.828Z,93772.19
2022-08-22T06:32:59.951Z,93790.88
2022-08-22T06:35:55.505Z,93807.22
2022-08-22T06:38:28.346Z,93788.22
2022-08-22T06:40:58.059Z,93800.91
2022-08-22T06:43:25.517Z,93807.88
2022-08-22T06:45:53.244Z,93793.25
2022-08-22T06:48:23.608Z,93786.53
2022-08-22T06:50:56.402Z,93797.41
2022-08-22T06:53:47.817Z,93786.56
2022-08-22T06:56:23.215Z,93805.69
2022-08-22T06:58:54.457Z,93805.94
2022-08-22T07:01:25.251Z,93805.28
2022-08-22T07:03:55.221Z,93808.72
2022-08-22T07:06:31.480Z,93809.41
2022-08-22T07:08:58.324Z,93794.75
2022-08-22T07:11:39.629Z,93789.03
2022-08-22T07:14:13.289Z,93809.88
2022-08-22T07:16:49.764Z,93811.00
2022-08-22T07:19:27.172Z,93812.03
2022-08-22T07:21:54.927Z,93787.63
2022-08-22T07:24:27.772Z,93783.47
2022-08-22T07:27:06.548Z,93793.28
2022-08-22T07:29:46.871Z,93805.31
2022-08-22T07:32:28.893Z,93783.97
2022-08-22T07:35:09.107Z,93801.94
2022-08-22T07:37:57.826Z,93786.09
2022-08-22T07:40:31.386Z,93798.56
2022-08-22T07:43:12.826Z,93793.00
2022-08-22T07:46:21.746Z,93807.88
2022-08-22T07:49:08.693Z,93806.09
2022-08-22T07:51:43.428Z,93763.03
2022-08-22T07:54:13.986Z,93789.00
2022-08-22T07:56:47.544Z,93805.66
2022-08-22T07:59:18.034Z,93807.88
2022-08-22T08:01:48.618Z,93766.13
2022-08-22T08:04:19.521Z,93792.38
2022-08-22T08:06:50.698Z,93798.38
2022-08-22T08:09:19.634Z,93782.41
2022-08-22T08:11:49.185Z,93771.00
2022-08-22T08:14:19.905Z,93793.69
2022-08-22T08:17:06.000Z,93792.13
2022-08-22T08:19:35.900Z,93779.47
2022-08-22T08:22:02.821Z,93770.41
2022-08-22T08:24:41.357Z,93799.16
2022-08-22T08:27:40.917Z,93768.91
2022-08-22T08:30:21.230Z,93805.91
2022-08-22T08:33:24.289Z,93799.59
2022-08-22T08:36:02.756Z,93780.25
2022-08-22T08:38:36.161Z,93765.75
2022-08-22T08:41:26.512Z,93792.00
2022-08-22T08:44:08.388Z,93794.25
2022-08-22T08:46:42.665Z,93774.09
2022-08-22T08:49:30.967Z,93804.22
2022-08-22T08:52:37.065Z,93798.28
2022-08-22T08:58:31.876Z,93794.44
2022-08-22T09:01:12.593Z,93807.72
2022-08-22T09:04:01.238Z,93799.91
2022-08-22T09:06:50.700Z,93794.94
2022-08-22T09:09:26.087Z,93798.09
2022-08-22T09:12:16.406Z,93774.72
2022-08-22T09:15:11.941Z,93796.28
2022-08-22T09:17:56.209Z,93795.50
2022-08-22T09:20:46.226Z,93800.91
2022-08-22T09:23:43.698Z,93794.53
2022-08-22T09:26:23.809Z,93799.56
2022-08-22T09:29:00.028Z,93784.97
2022-08-22T09:31:48.371Z,93800.91
2022-08-22T09:34:39.776Z,93768.22
2022-08-22T09:37:25.283Z,93793.91
2022-08-22T09:40:05.602Z,93795.34
2022-08-22T09:40:16.157Z,93798.97
2022-08-22T09:42:45.044Z,93801.16
2022-08-22T09:45:31.152Z,93796.56
2022-08-22T09:48:21.275Z,93791.59
2022-08-22T09:51:28.324Z,93766.97
2022-08-22T09:54:02.624Z,93797.16
2022-08-22T09:56:49.438Z,93792.00
2022-08-22T09:59:41.138Z,93790.66
2022-08-22T10:02:32.257Z,93803.13
2022-08-22T10:05:12.588Z,93791.19
2022-08-22T10:08:05.182Z,93790.44
2022-08-22T10:10:51.358Z,93772.81
2022-08-22T10:13:36.356Z,93792.81
2022-08-22T10:16:26.489Z,93785.81
2022-08-22T10:19:12.334Z,93765.06
2022-08-22T10:22:12.945Z,93783.00
2022-08-22T10:25:16.220Z,93762.59
2022-08-22T10:27:56.699Z,93784.50
2022-08-22T10:30:29.516Z,93775.28
2022-08-22T10:33:12.105Z,93779.69
2022-08-22T10:36:18.403Z,93778.09
2022-08-22T10:38:48.244Z,93772.03
2022-08-22T10:41:26.637Z,93781.22
2022-08-22T10:44:03.947Z,93771.28
2022-08-22T10:46:46.190Z,93778.84
2022-08-22T10:49:19.664Z,93781.41
2022-08-22T10:52:14.870Z,93763.47
2022-08-22T10:55:09.969Z,93783.34
2022-08-22T10:57:54.845Z,93795.78
2022-08-22T11:00:50.186Z,93790.38
2022-08-22T11:03:24.945Z,93784.94
2022-08-22T11:05:54.826Z,93782.19
2022-08-22T11:08:51.052Z,93786.41
2022-08-22T11:11:26.304Z,93792.84
2022-08-22T11:14:30.058Z,93788.56
2022-08-22T11:17:02.782Z,93786.88
2022-08-22T11:19:58.343Z,93784.38
2022-08-22T11:22:29.190Z,93763.72
2022-08-22T11:25:29.207Z,93790.97
2022-08-22T11:28:22.362Z,93772.13
2022-08-22T11:31:14.145Z,93788.97
2022-08-22T11:34:12.728Z,93794.13
2022-08-22T11:36:47.043Z,93790.03
2022-08-22T11:39:34.740Z,93755.56
2022-08-22T11:42:15.370Z,93763.09
2022-08-22T11:44:58.868Z,93778.59
2022-08-22T11:47:31.118Z,93764.09
2022-08-22T11:50:18.379Z,93783.13
2022-08-22T11:52:44.783Z,93784.81
2022-08-22T11:55:39.885Z,93788.41
2022-08-22T11:58:28.965Z,93789.88
2022-08-22T12:01:01.880Z,93752.00
2022-08-22T12:03:55.848Z,93771.81
2022-08-22T12:06:38.269Z,93747.59
2022-08-22T12:09:20.507Z,93752.13
2022-08-22T12:12:20.200Z,93731.34
2022-08-22T12:15:11.405Z,93766.50
2022-08-22T12:17:55.877Z,93766.09
2022-08-22T12:20:46.834Z,93767.22
2022-08-22T12:23:54.518Z,93761.63
2022-08-22T12:26:27.196Z,93758.88
2022-08-22T12:29:16.987Z,93745.63
2022-08-22T12:31:58.741Z,93747.63
2022-08-22T12:34:32.433Z,93661.16
2022-08-22T12:37:16.538Z,93746.84
2022-08-22T12:40:19.170Z,93739.97
2022-08-22T12:42:57.676Z,93708.78
2022-08-22T12:45:43.416Z,93732.34
2022-08-22T12:48:42.557Z,93729.50
2022-08-22T12:51:29.408Z,93740.13
2022-08-22T12:54:23.630Z,93739.69
2022-08-22T12:57:23.952Z,93732.34
2022-08-22T12:59:58.140Z,93729.84
2022-08-22T13:02:30.829Z,93724.72
2022-08-22T13:05:10.847Z,93733.94
2022-08-22T13:07:40.664Z,93710.19
2022-08-22T13:10:14.529Z,93719.47
2022-08-22T13:12:52.501Z,93732.47
2022-08-22T13:15:18.835Z,93728.84
2022-08-22T13:17:46.300Z,93690.59
2022-08-22T13:20:34.578Z,93708.84
2022-08-22T13:23:12.527Z,93717.88
2022-08-22T13:26:07.454Z,93720.75
2022-08-22T13:28:41.953Z,93695.19
2022-08-22T13:31:09.911Z,93683.72
2022-08-22T13:33:46.925Z,93729.59
2022-08-22T13:36:22.090Z,93695.69
2022-08-22T13:39:22.390Z,93703.81
2022-08-22T13:41:52.833Z,93721.22
2022-08-22T13:44:24.664Z,93701.03
2022-08-22T13:47:12.862Z,93684.44
2022-08-22T13:49:43.067Z,93708.22
2022-08-22T13:52:32.060Z,93680.06
2022-08-22T13:55:24.220Z,93703.38
2022-08-22T13:58:01.425Z,93702.56
2022-08-22T14:01:06.041Z,93695.63
2022-08-22T14:03:42.901Z,93698.97
2022-08-22T14:06:37.946Z,93706.47
2022-08-22T14:09:40.522Z,93706.88
2022-08-22T14:12:13.951Z,93680.13
2022-08-22T14:14:46.219Z,93680.84
2022-08-22T14:17:20.755Z,93697.97
2022-08-22T14:19:59.643Z,93699.47
2022-08-22T14:22:34.946Z,93700.41
2022-08-22T14:25:07.329Z,93692.00
2022-08-22T14:27:39.544Z,93685.69
2022-08-22T14:30:18.914Z,93688.53
2022-08-22T14:33:17.621Z,93674.00
2022-08-22T14:35:52.900Z,93680.44
2022-08-22T14:38:36.639Z,93684.97
2022-08-22T14:41:52.382Z,93690.59
2022-08-22T14:44:29.398Z,93689.44
2022-08-22T14:47:54.290Z,93665.59
2022-08-22T14:49:59.675Z,93705.00
2022-08-22T14:52:40.668Z,93679.41
2022-08-22T14:55:10.220Z,93704.44
2022-08-22T14:57:43.556Z,93693.75
2022-08-22T15:00:12.452Z,93702.53
2022-08-22T15:02:40.462Z,93673.19
2022-08-22T15:05:19.765Z,93700.63
2022-08-22T15:07:55.980Z,93701.44
2022-08-22T15:10:22.645Z,93699.09
2022-08-22T15:12:53.858Z,93684.41
2022-08-22T15:15:49.788Z,93696.03
2022-08-22T15:18:23.458Z,93703.88
2022-08-22T15:21:01.857Z,93690.03
2022-08-22T15:23:31.968Z,93700.56
2022-08-22T15:26:19.131Z,93707.19
2022-08-22T15:28:55.689Z,93685.47
2022-08-22T15:31:23.012Z,93707.25
2022-08-22T15:33:50.189Z,93697.28
2022-08-22T15:36:22.517Z,93704.06
2022-08-22T15:39:28.387Z,93706.03
2022-08-22T15:41:56.760Z,93677.84
2022-08-22T15:44:33.401Z,93703.31
2022-08-22T15:47:10.878Z,93673.84
2022-08-22T15:49:58.790Z,93700.72
2022-08-22T15:52:30.248Z,93704.53
2022-08-22T15:55:05.939Z,93706.53
2022-08-22T15:57:47.373Z,93623.97
2022-08-22T16:00:29.588Z,93693.50
2022-08-22T16:03:01.655Z,93686.97
2022-08-22T16:05:34.417Z,93692.91
2022-08-22T16:08:06.769Z,93685.63
2022-08-22T16:10:53.820Z,93666.81
2022-08-22T16:13:26.574Z,93680.13
2022-08-22T16:16:16.147Z,93684.91
2022-08-22T16:18:43.495Z,93688.81
2022-08-22T16:21:14.301Z,93684.84
2022-08-22T16:23:49.878Z,93689.38
2022-08-22T16:26:20.685Z,93693.25
2022-08-22T16:29:00.502Z,93691.94
2022-08-22T16:31:34.961Z,93664.94
2022-08-22T16:34:20.293Z,93696.25
2022-08-22T16:36:49.370Z,93700.13
2022-08-22T16:39:21.854Z,93668.13
2022-08-22T16:41:54.809Z,93700.34
2022-08-22T16:44:30.520Z,93699.97
2022-08-22T16:47:09.204Z,93694.94
2022-08-22T16:49:53.344Z,93696.97
2022-08-22T16:52:25.618Z,93699.94
2022-08-22T16:55:01.313Z,93698.69
2022-08-22T16:57:59.286Z,93675.88
2022-08-22T17:00:38.280Z,93705.44
2022-08-22T17:03:18.093Z,93710.50
2022-08-22T17:06:06.170Z,93707.22
2022-08-22T17:08:38.541Z,93709.06
2022-08-22T17:11:15.355Z,93714.19
2022-08-22T17:13:56.022Z,93692.06
2022-08-22T17:16:52.054Z,93711.34
2022-08-22T17:19:42.106Z,93721.03
2022-08-22T17:22:29.044Z,93704.81
2022-08-22T17:25:10.531Z,93717.22
2022-08-22T17:27:40.172Z,93690.44
2022-08-22T17:30:24.898Z,93705.72
2022-08-22T17:33:06.558Z,93728.66
2022-08-22T17:35:51.324Z,93711.53
2022-08-22T17:38:46.387Z,93732.53
2022-08-22T17:41:43.032Z,93728.34
2022-08-22T17:44:09.431Z,93733.69
2022-08-22T17:46:49.408Z,93722.56
2022-08-22T17:49:15.835Z,93732.13
2022-08-22T17:51:45.160Z,93734.28
2022-08-22T17:54:20.928Z,93724.78
2022-08-22T17:57:02.681Z,93709.44
2022-08-22T17:59:40.175Z,93713.69
2022-08-22T18:02:28.813Z,93736.53
2022-08-22T18:05:02.876Z,93739.25
2022-08-22T18:07:36.016Z,93704.72
2022-08-22T18:10:19.601Z,93739.53
2022-08-22T18:13:01.318Z,93741.94
2022-08-22T18:15:51.702Z,93715.78
2022-08-22T18:18:35.790Z,93759.25
2022-08-22T18:21:22.674Z,93766.06
2022-08-22T18:23:54.140Z,93760.75
2022-08-22T18:26:29.429Z,93747.09
2022-08-22T18:29:11.143Z,93767.19
2022-08-22T18:32:05.544Z,93765.94
2022-08-22T18:34:47.066Z,93765.31
2022-08-22T18:37:35.780Z,93737.66
2022-08-22T18:40:08.378Z,93774.59
2022-08-22T18:42:58.763Z,93782.47
2022-08-22T18:45:44.638Z,93775.63
2022-08-22T18:48:59.752Z,93779.16
2022-08-22T18:51:38.385Z,93780.66
2022-08-22T18:54:05.131Z,93789.94
2022-08-22T18:56:31.490Z,93790.91
2022-08-22T18:59:30.153Z,93772.44
2022-08-22T19:02:21.537Z,93797.88
2022-08-22T19:05:25.069Z,93796.03
2022-08-22T19:08:08.165Z,93785.78
2022-08-22T19:11:02.977Z,93764.84
2022-08-22T19:13:38.625Z,93802.91
2022-08-22T19:16:26.630Z,93806.34
2022-08-22T19:18:57.448Z,93815.13
2022-08-22T19:21:42.592Z,93813.47
2022-08-22T19:24:17.803Z,93818.91
2022-08-22T19:27:08.590Z,93822.00
2022-08-22T19:29:34.949Z,93823.69
2022-08-22T19:32:05.934Z,93795.13
2022-08-22T19:34:40.786Z,93833.09
2022-08-22T19:37:30.504Z,93824.38
2022-08-22T19:40:00.738Z,93830.13
2022-08-22T19:42:27.325Z,93831.53
2022-08-22T19:44:53.855Z,93836.03
2022-08-22T19:47:29.244Z,93826.88
2022-08-22T19:50:16.912Z,93823.31
2022-08-22T19:52:56.803Z,93833.25
2022-08-22T19:55:38.657Z,93835.44
2022-08-22T19:58:32.541Z,93837.53
2022-08-22T20:01:09.841Z,93837.44
2022-08-22T20:04:20.819Z,93835.84
2022-08-22T20:07:18.876Z,93826.03
2022-08-22T20:10:04.525Z,93839.63
2022-08-22T20:12:41.026Z,93831.63
2022-08-22T20:15:22.370Z,93836.09
2022-08-22T20:20:55.191Z,93838.72
2022-08-22T20:23:31.112Z,93812.84
2022-08-22T20:25:58.282Z,93840.00
2022-08-22T20:28:36.609Z,93840.09
2022-08-22T20:31:09.632Z,93828.63
2022-08-22T20:33:39.808Z,93843.97
2022-08-22T20:36:18.505Z,93847.28
2022-08-22T20:38:59.952Z,93822.00
2022-08-22T20:41:36.623Z,93855.31
2022-08-22T20:44:29.438Z,93844.72
2022-08-22T20:47:06.052Z,93851.97
2022-08-22T20:49:41.978Z,93822.69
2022-08-22T20:52:20.356Z,93842.81
2022-08-22T20:54:57.888Z,93839.53
2022-08-22T20:57:24.491Z,93839.41
2022-08-22T21:00:15.117Z,93813.75
2022-08-22T21:03:07.349Z,93836.00
2022-08-22T21:05:41.100Z,93840.53
2022-08-22T21:08:13.146Z,93842.00
2022-08-22T21:10:59.700Z,93817.34
2022-08-22T21:13:33.967Z,93835.50
2022-08-22T21:16:31.244Z,93842.56
2022-08-22T21:18:58.924Z,93803.53
2022-08-22T21:21:28.905Z,93838.34
2022-08-22T21:24:01.323Z,93806.34
2022-08-22T21:26:33.364Z,93806.81
2022-08-22T21:29:18.122Z,93833.47
2022-08-22T21:31:48.534Z,93812.25
2022-08-22T21:34:22.707Z,93830.16
2022-08-22T21:36:54.818Z,93834.25
2022-08-22T21:39:25.040Z,93792.34
2022-08-22T21:41:59.092Z,93842.75
2022-08-22T21:44:31.714Z,93836.66
2022-08-22T21:47:13.843Z,93846.00
2022-08-22T21:50:18.693Z,93829.00
2022-08-22T21:53:10.308Z,93847.19
2022-08-22T21:55:43.419Z,93840.41
2022-08-22T21:58:30.986Z,93857.69
2022-08-22T22:01:22.184Z,93849.97
2022-08-22T22:03:51.762Z,93828.94
2022-08-22T22:06:18.176Z,93835.94
2022-08-22T22:08:44.633Z,93834.94
2022-08-22T22:11:15.068Z,93852.31
2022-08-22T22:13:42.294Z,93818.44
2022-08-22T22:16:12.067Z,93852.16
2022-08-22T22:18:39.748Z,93851.94
2022-08-22T22:21:06.559Z,93856.81
2022-08-22T22:23:33.054Z,93839.75
2022-08-22T22:26:02.434Z,93845.72
2022-08-22T22:28:34.869Z,93838.44
2022-08-22T22:31:01.495Z,93868.38
2022-08-22T22:33:31.528Z,93866.88
2022-08-22T22:36:03.737Z,93845.41
2022-08-22T22:38:30.191Z,93837.69
2022-08-22T22:40:56.680Z,93835.34
2022-08-22T22:43:23.140Z,93846.25
2022-08-22T22:45:49.888Z,93832.69
2022-08-22T22:48:24.134Z,93836.44
2022-08-22T22:50:54.998Z,93864.53
2022-08-22T22:53:38.621Z,93821.53
2022-08-22T22:56:09.222Z,93861.34
2022-08-22T22:58:36.266Z,93826.84
2022-08-22T23:01:15.314Z,93860.63
2022-08-22T23:03:42.577Z,93838.00
2022-08-22T23:06:14.502Z,93862.66
2022-08-22T23:08:41.473Z,93845.06
2022-08-22T23:11:15.104Z,93869.28
2022-08-22T23:13:42.761Z,93842.34
2022-08-22T23:16:12.941Z,93837.09
2022-08-22T23:18:40.015Z,93826.13
2022-08-22T23:21:30.044Z,93865.25
2022-08-22T23:23:58.415Z,93830.38
2022-08-22T23:26:25.131Z,93841.66
2022-08-22T23:28:51.860Z,93861.00
2022-08-22T23:31:27.967Z,93875.69
2022-08-22T23:33:55.559Z,93852.59
2022-08-22T23:36:23.871Z,93878.78
2022-08-22T23:38:51.585Z,93875.53
2022-08-22T23:41:21.434Z,93868.69
2022-08-22T23:43:51.553Z,93850.00
2022-08-22T23:46:20.856Z,93863.94
2022-08-22T23:48:47.855Z,93868.78
2022-08-22T23:51:16.492Z,93861.34
2022-08-22T23:53:44.257Z,93852.13
2022-08-22T23:56:19.748Z,93871.66
2022-08-22T23:58:47.000Z,93845.97
